Rufus, Oregon
Current Conditions -  °F | °C
As of 11:53 PM on Wednesday 28 Jan 2015 (Local Time) from KDLS Reporting Station
Overcast Overcast  
Wind Chill: 36°   Ceiling: 1400
Heat Index: 41°   Visibility: 10mi
Dew Point: 37°   Wind: 7mph
Humidity: 86%   Direction: 80°E
Pressure: 30.49"   Gusts: NA
Location:  45.69°N, 120.74°W
Report Text: KDLS 290753Z AUTO 08006KT 10SM OVC014 05/03 A3049 RMK AO2 SLP325 T00500028 401110044
Loading
Personal Weather Stations






























Interactive Weather Map New forecast layout! Learn more

10-Day Weather Forecast

Advertisements
Track Severe Weather on mobile